Time;durP1;ratioP1;P1;durP2;ratioP2;P2;SDS_P1;SDS_P2;PMS_P1;PMS_P2;Temp;Humidity;BMP_temperature;BMP_pressure;BME280_temperature;BME280_humidity;BME280_pressure;Samples;Min_cycle;Max_cycle;Signal;HPM_P1;HPM_P2
2021/12/08 00:02:16;;;;;;;;;;;;;;;;;;5060628;28;19932;-68
2021/12/08 00:04:43;;;;;;;;;;;;;;;;;;5067744;28;19978;-70
2021/12/08 00:07:10;;;;;;;;;;;;;;;;;;5060739;28;19925;-67
2021/12/08 00:09:48;;;;;;;;;;;;;;;;;;5065443;28;19932;-68
2021/12/08 00:14:59;;;;;;;;;;;;;;;;;;5059761;28;19942;-69
2021/12/08 00:17:26;;;;;;;;;;;;;;;;;;5063207;28;19932;-73
2021/12/08 00:19:53;;;;;;;;;;;;;;;;;;5069069;28;20035;-68
2021/12/08 00:22:20;;;;;;;;;;;;;;;;;;5066121;28;19925;-68
2021/12/08 00:24:47;;;;;;;;;;;;;;;;;;5062850;28;19924;-69
2021/12/08 00:27:14;;;;;;;;;;;;;;;;;;5060609;28;19929;-68
2021/12/08 00:29:41;;;;;;;;;;;;;;;;;;5063095;28;19932;-68
2021/12/08 00:32:09;;;;;;;;;;;;;;;;;;5073771;28;19931;-68
2021/12/08 00:34:38;;;;;;;;;;;;;;;;;;5068845;28;19971;-69
2021/12/08 00:37:05;;;;;;;;;;;;;;;;;;5058426;28;19925;-70
2021/12/08 00:39:32;;;;;;;;;;;;;;;;;;5068233;28;19931;-68
2021/12/08 00:41:59;;;;;;;;;;;;;;;;;;5071618;28;19936;-70
2021/12/08 00:44:26;;;;;;;;;;;;;;;;;;5068257;28;19928;-69
2021/12/08 00:46:53;;;;;;;;;;;;;;;;;;5059763;28;19924;-67
2021/12/08 00:49:20;;;;;;;;;;;;;;;;;;5071376;28;19925;-71
2021/12/08 00:51:47;;;;;;;;;;;;;;;;;;5069724;28;19924;-68
2021/12/08 00:54:14;;;;;;;;;;;;;;;;;;5059557;28;20401;-68
2021/12/08 00:56:41;;;;;;;;;;;;;;;;;;5060002;28;19925;-68
2021/12/08 00:59:08;;;;;;;;;;;;;;;;;;5065968;28;19933;-69
2021/12/08 01:01:35;;;;;;;;;;;;;;;;;;5069442;28;19924;-69
2021/12/08 01:04:01;;;;;;;;;;;;;;;;;;5066745;28;19931;-71
2021/12/08 01:06:28;;;;;;;;;;;;;;;;;;5063329;28;19925;-71
2021/12/08 01:08:55;;;;;;;;;;;;;;;;;;5074609;28;19932;-66
2021/12/08 01:11:22;;;;;;;;;;;;;;;;;;5079561;28;20341;-69
2021/12/08 01:13:49;;;;;;;;;;;;;;;;;;5070079;28;20018;-68
2021/12/08 01:16:16;;;;;;;;;;;;;;;;;;5064398;28;19925;-67
2021/12/08 01:18:43;;;;;;;;;;;;;;;;;;5066346;28;19924;-68
2021/12/08 01:21:10;;;;;;;;;;;;;;;;;;5068474;28;19931;-68
2021/12/08 01:23:37;;;;;;;;;;;;;;;;;;5058117;28;19925;-68
2021/12/08 01:26:04;;;;;;;;;;;;;;;;;;5065364;28;19929;-66
2021/12/08 01:28:31;;;;;;;;;;;;;;;;;;5071836;28;19929;-69
2021/12/08 01:31:00;;;;;;;;;;;;;;;;;;5063368;28;19932;-69
2021/12/08 01:33:28;;;;;;;;;;;;;;;;;;5062453;28;19924;-67
2021/12/08 01:35:55;;;;;;;;;;;;;;;;;;5066612;28;19939;-69
2021/12/08 01:38:22;;;;;;;;;;;;;;;;;;5064147;28;20076;-68
2021/12/08 01:40:49;;;;;;;;;;;;;;;;;;5062378;28;20378;-67
2021/12/08 01:43:25;;;;;;;;;;;;;;;;;;5068383;28;19946;-66
2021/12/08 01:45:59;;;;;;;;;;;;;;;;;;5060696;28;19931;-66
2021/12/08 01:48:26;;;;;;;;;;;;;;;;;;5064728;28;19974;-67
2021/12/08 01:50:53;;;;;;;;;;;;;;;;;;5060076;28;19925;-67
2021/12/08 01:53:20;;;;;;;;;;;;;;;;;;5063544;28;20386;-68
2021/12/08 01:55:47;;;;;;;;;;;;;;;;;;5065794;28;20320;-65
2021/12/08 01:58:14;;;;;;;;;;;;;;;;;;5069305;28;19924;-68
2021/12/08 02:00:41;;;;;;;;;;;;;;;;;;5068473;28;19931;-67
2021/12/08 02:03:08;;;;;;;;;;;;;;;;;;5064739;28;19932;-67
2021/12/08 02:05:35;;;;;;;;;;;;;;;;;;5064104;28;20390;-67
2021/12/08 02:08:02;;;;;;;;;;;;;;;;;;5069372;28;19929;-68
2021/12/08 02:10:29;;;;;;;;;;;;;;;;;;5070953;28;20100;-67
2021/12/08 02:12:56;;;;;;;;;;;;;;;;;;5068132;28;19998;-67
2021/12/08 02:15:23;;;;;;;;;;;;;;;;;;5074301;28;19936;-66
2021/12/08 02:17:50;;;;;;;;;;;;;;;;;;5065574;28;19960;-70
2021/12/08 02:20:17;;;;;;;;;;;;;;;;;;5071891;28;19924;-67
2021/12/08 02:22:44;;;;;;;;;;;;;;;;;;5061993;28;19925;-66
2021/12/08 02:25:11;;;;;;;;;;;;;;;;;;5068378;28;19925;-67
2021/12/08 02:27:38;;;;;;;;;;;;;;;;;;5067690;28;19925;-68
2021/12/08 02:30:13;;;;;;;;;;;;;;;;;;5079305;28;19924;-67
2021/12/08 02:46:48;;;;;;;;;;;;;;;;;;5065198;28;19918;-68
2021/12/08 02:49:15;;;;;;;;;;;;;;;;;;5069086;28;20019;-67
2021/12/08 02:51:42;;;;;;;;;;;;;;;;;;5065892;28;19936;-67
2021/12/08 02:54:09;;;;;;;;;;;;;;;;;;5072430;28;19932;-67
2021/12/08 02:56:36;;;;;;;;;;;;;;;;;;5065235;28;20417;-67
2021/12/08 02:59:02;;;;;;;;;;;;;;;;;;5067766;28;20382;-68
2021/12/08 03:01:29;;;;;;;;;;;;;;;;;;5067984;28;20308;-66
2021/12/08 03:03:56;;;;;;;;;;;;;;;;;;5068413;28;20033;-67
2021/12/08 03:06:23;;;;;;;;;;;;;;;;;;5068583;28;19931;-66
2021/12/08 03:08:50;;;;;;;;;;;;;;;;;;5068548;28;19924;-66
2021/12/08 03:11:17;;;;;;;;;;;;;;;;;;5081364;28;19924;-67
2021/12/08 03:13:44;;;;;;;;;;;;;;;;;;5063544;28;19933;-67
2021/12/08 03:16:11;;;;;;;;;;;;;;;;;;5075309;28;20081;-67
2021/12/08 03:18:38;;;;;;;;;;;;;;;;;;5063226;28;19928;-67
2021/12/08 03:21:05;;;;;;;;;;;;;;;;;;5063768;28;19925;-68
2021/12/08 03:23:37;;;;;;;;;;;;;;;;;;5062153;28;19928;-67
2021/12/08 03:26:06;;;;;;;;;;;;;;;;;;5068484;28;20019;-67
2021/12/08 03:28:39;;;;;;;;;;;;;;;;;;5063230;28;20386;-67
2021/12/08 03:31:10;;;;;;;;;;;;;;;;;;5064218;28;19981;-68
2021/12/08 03:33:37;;;;;;;;;;;;;;;;;;5071476;28;20290;-67
2021/12/08 03:36:04;;;;;;;;;;;;;;;;;;5068541;28;19925;-69
2021/12/08 03:38:31;;;;;;;;;;;;;;;;;;5063132;28;19925;-67
2021/12/08 03:40:59;;;;;;;;;;;;;;;;;;5065327;28;19970;-67
2021/12/08 03:43:26;;;;;;;;;;;;;;;;;;5062256;28;19924;-67
2021/12/08 03:45:53;;;;;;;;;;;;;;;;;;5070886;28;19924;-67
2021/12/08 03:48:23;;;;;;;;;;;;;;;;;;5056308;28;19936;-67
2021/12/08 03:50:50;;;;;;;;;;;;;;;;;;5067583;28;19929;-67
2021/12/08 03:53:17;;;;;;;;;;;;;;;;;;5067046;28;19931;-68
2021/12/08 03:55:44;;;;;;;;;;;;;;;;;;5069698;28;19947;-67
2021/12/08 03:58:11;;;;;;;;;;;;;;;;;;5060212;28;19928;-67
2021/12/08 04:00:38;;;;;;;;;;;;;;;;;;5069948;28;19924;-67
2021/12/08 04:03:06;;;;;;;;;;;;;;;;;;5061901;28;19932;-68
2021/12/08 04:05:43;;;;;;;;;;;;;;;;;;5076724;28;20463;-67
2021/12/08 04:08:16;;;;;;;;;;;;;;;;;;5065719;28;19936;-67
2021/12/08 04:10:43;;;;;;;;;;;;;;;;;;5066787;28;20031;-67
2021/12/08 04:13:10;;;;;;;;;;;;;;;;;;5062172;28;20305;-67
2021/12/08 04:15:37;;;;;;;;;;;;;;;;;;5070718;28;19924;-67
2021/12/08 04:18:04;;;;;;;;;;;;;;;;;;5065760;28;19925;-67
2021/12/08 04:20:31;;;;;;;;;;;;;;;;;;5068395;28;19924;-67
2021/12/08 04:22:58;;;;;;;;;;;;;;;;;;5067955;28;19932;-67
2021/12/08 04:25:25;;;;;;;;;;;;;;;;;;5068661;28;19935;-67
2021/12/08 04:27:52;;;;;;;;;;;;;;;;;;5062285;28;19931;-67
2021/12/08 04:30:19;;;;;;;;;;;;;;;;;;5060157;28;19925;-67
2021/12/08 04:32:45;;;;;;;;;;;;;;;;;;5062168;28;20111;-67
2021/12/08 04:35:15;;;;;;;;;;;;;;;;;;5066883;28;19932;-67
2021/12/08 04:37:44;;;;;;;;;;;;;;;;;;5061939;28;19925;-67
2021/12/08 04:40:18;;;;;;;;;;;;;;;;;;5067421;28;20202;-67
2021/12/08 04:42:57;;;;;;;;;;;;;;;;;;5062624;28;19925;-67
2021/12/08 04:45:30;;;;;;;;;;;;;;;;;;5067267;28;19924;-67
2021/12/08 04:48:13;;;;;;;;;;;;;;;;;;5063621;28;19924;-67
2021/12/08 04:51:04;;;;;;;;;;;;;;;;;;5061404;28;20310;-66
2021/12/08 04:53:44;;;;;;;;;;;;;;;;;;5059196;28;19924;-67
2021/12/08 05:02:01;;;;;;;;;;;;;;;;;;5063623;28;19924;-67
2021/12/08 05:04:38;;;;;;;;;;;;;;;;;;5066856;28;19925;-67
2021/12/08 05:07:17;;;;;;;;;;;;;;;;;;5062570;28;19928;-67
2021/12/08 05:09:44;;;;;;;;;;;;;;;;;;5069130;28;20029;-67
2021/12/08 05:12:11;;;;;;;;;;;;;;;;;;5062075;28;19925;-67
2021/12/08 05:14:38;;;;;;;;;;;;;;;;;;5069408;28;19925;-68
2021/12/08 05:17:05;;;;;;;;;;;;;;;;;;5066267;28;20187;-67
2021/12/08 05:19:32;;;;;;;;;;;;;;;;;;5068540;28;19931;-67
2021/12/08 05:21:59;;;;;;;;;;;;;;;;;;5066119;28;20424;-68
2021/12/08 05:24:27;;;;;;;;;;;;;;;;;;5067003;28;19924;-67
2021/12/08 05:26:54;;;;;;;;;;;;;;;;;;5060254;28;19978;-66
2021/12/08 05:29:21;;;;;;;;;;;;;;;;;;5064746;28;19931;-67
2021/12/08 05:31:49;;;;;;;;;;;;;;;;;;5053614;28;19932;-67
2021/12/08 05:34:16;;;;;;;;;;;;;;;;;;5062493;28;20302;-67
2021/12/08 05:36:43;;;;;;;;;;;;;;;;;;5063657;28;20415;-67
2021/12/08 05:39:09;;;;;;;;;;;;;;;;;;5068471;28;20381;-67
2021/12/08 05:41:36;;;;;;;;;;;;;;;;;;5069195;28;20400;-67
2021/12/08 05:44:03;;;;;;;;;;;;;;;;;;5062966;28;19936;-66
2021/12/08 05:46:30;;;;;;;;;;;;;;;;;;5069402;28;19925;-68
2021/12/08 05:48:57;;;;;;;;;;;;;;;;;;5070120;28;20290;-67
2021/12/08 05:51:24;;;;;;;;;;;;;;;;;;5072094;28;19936;-67
2021/12/08 05:53:51;;;;;;;;;;;;;;;;;;5079838;28;19931;-67
2021/12/08 05:56:18;;;;;;;;;;;;;;;;;;5070852;28;19925;-67
2021/12/08 05:58:45;;;;;;;;;;;;;;;;;;5073074;28;19936;-67
2021/12/08 06:01:12;;;;;;;;;;;;;;;;;;5071522;28;19932;-66
2021/12/08 06:03:41;;;;;;;;;;;;;;;;;;5063263;28;19931;-66
2021/12/08 06:06:08;;;;;;;;;;;;;;;;;;5070494;28;19936;-67
2021/12/08 06:08:35;;;;;;;;;;;;;;;;;;5064589;28;19924;-67
2021/12/08 06:11:01;;;;;;;;;;;;;;;;;;5067892;28;19925;-67
2021/12/08 06:13:28;;;;;;;;;;;;;;;;;;5067172;28;19929;-66
2021/12/08 06:15:55;;;;;;;;;;;;;;;;;;5065639;28;19925;-66
2021/12/08 06:18:25;;;;;;;;;;;;;;;;;;5067349;28;19924;-66
2021/12/08 06:20:52;;;;;;;;;;;;;;;;;;5064863;28;19970;-66
2021/12/08 06:23:19;;;;;;;;;;;;;;;;;;5069583;28;19925;-67
2021/12/08 06:25:45;;;;;;;;;;;;;;;;;;5069872;28;20015;-66
2021/12/08 06:28:12;;;;;;;;;;;;;;;;;;5073592;28;19924;-67
2021/12/08 06:30:39;;;;;;;;;;;;;;;;;;5068697;28;19925;-66
2021/12/08 06:33:06;;;;;;;;;;;;;;;;;;5066731;28;19924;-67
2021/12/08 06:35:33;;;;;;;;;;;;;;;;;;5072083;28;19931;-66
2021/12/08 06:38:00;;;;;;;;;;;;;;;;;;5065172;28;19928;-67
2021/12/08 06:40:27;;;;;;;;;;;;;;;;;;5060369;28;19931;-67
2021/12/08 06:42:54;;;;;;;;;;;;;;;;;;5055661;28;20393;-67
2021/12/08 06:45:21;;;;;;;;;;;;;;;;;;5063791;28;19931;-67
2021/12/08 06:47:48;;;;;;;;;;;;;;;;;;5060510;28;19924;-67
2021/12/08 06:50:15;;;;;;;;;;;;;;;;;;5073537;28;19931;-67
2021/12/08 06:52:42;;;;;;;;;;;;;;;;;;5064254;28;19924;-67
2021/12/08 06:55:09;;;;;;;;;;;;;;;;;;5061101;28;19935;-68
2021/12/08 06:57:36;;;;;;;;;;;;;;;;;;5072331;28;19924;-68
2021/12/08 07:00:16;;;;;;;;;;;;;;;;;;5063220;28;19931;-68
2021/12/08 07:02:59;;;;;;;;;;;;;;;;;;5065443;28;19967;-68
2021/12/08 07:05:30;;;;;;;;;;;;;;;;;;5069376;28;19978;-67
2021/12/08 07:07:57;;;;;;;;;;;;;;;;;;5068644;28;19924;-66
2021/12/08 07:10:24;;;;;;;;;;;;;;;;;;5068266;28;19928;-66
2021/12/08 07:12:51;;;;;;;;;;;;;;;;;;5055630;28;19925;-66
2021/12/08 07:15:18;;;;;;;;;;;;;;;;;;5075472;28;19931;-66
2021/12/08 07:17:45;;;;;;;;;;;;;;;;;;5072987;28;19924;-66
2021/12/08 07:20:25;;;;;;;;;;;;;;;;;;5063913;28;20400;-66
2021/12/08 07:22:52;;;;;;;;;;;;;;;;;;5066342;28;19966;-66
2021/12/08 07:25:19;;;;;;;;;;;;;;;;;;5058926;28;19947;-66
2021/12/08 07:27:46;;;;;;;;;;;;;;;;;;5063705;28;20015;-67
2021/12/08 07:30:13;;;;;;;;;;;;;;;;;;5059845;28;20305;-66
2021/12/08 07:32:41;;;;;;;;;;;;;;;;;;5061961;28;19943;-66
2021/12/08 07:35:08;;;;;;;;;;;;;;;;;;5067984;28;19925;-66
2021/12/08 07:37:35;;;;;;;;;;;;;;;;;;5061737;28;19925;-66
2021/12/08 07:40:02;;;;;;;;;;;;;;;;;;5061040;28;20355;-67
2021/12/08 07:42:29;;;;;;;;;;;;;;;;;;5061516;28;19931;-67
2021/12/08 07:44:56;;;;;;;;;;;;;;;;;;5071237;28;20015;-66
2021/12/08 07:47:23;;;;;;;;;;;;;;;;;;5062420;28;19936;-66
2021/12/08 07:49:50;;;;;;;;;;;;;;;;;;5064346;28;19931;-66
2021/12/08 07:52:17;;;;;;;;;;;;;;;;;;5074204;28;19932;-67
2021/12/08 07:54:44;;;;;;;;;;;;;;;;;;5074323;28;19924;-68
2021/12/08 07:57:11;;;;;;;;;;;;;;;;;;5069858;28;19928;-66
2021/12/08 07:59:39;;;;;;;;;;;;;;;;;;5068555;28;19925;-67
2021/12/08 08:02:07;;;;;;;;;;;;;;;;;;5063580;28;19924;-67
2021/12/08 08:04:34;;;;;;;;;;;;;;;;;;5066008;28;20429;-66
2021/12/08 08:07:01;;;;;;;;;;;;;;;;;;5060913;28;19928;-66
2021/12/08 08:09:28;;;;;;;;;;;;;;;;;;5060036;28;20301;-67
2021/12/08 08:11:57;;;;;;;;;;;;;;;;;;5066009;28;19925;-67
2021/12/08 08:14:24;;;;;;;;;;;;;;;;;;5073441;28;19932;-66
2021/12/08 08:16:55;;;;;;;;;;;;;;;;;;5070705;28;20401;-66
2021/12/08 08:19:26;;;;;;;;;;;;;;;;;;5064182;28;20599;-67
2021/12/08 08:21:53;;;;;;;;;;;;;;;;;;5056218;28;19924;-65
2021/12/08 08:24:20;;;;;;;;;;;;;;;;;;5063928;28;19933;-68
2021/12/08 08:26:48;;;;;;;;;;;;;;;;;;5059610;28;20297;-67
2021/12/08 08:29:15;;;;;;;;;;;;;;;;;;5068410;28;19931;-67
2021/12/08 08:31:42;;;;;;;;;;;;;;;;;;5056667;28;20309;-66
2021/12/08 08:34:09;;;;;;;;;;;;;;;;;;5059721;28;20296;-66
2021/12/08 08:36:36;;;;;;;;;;;;;;;;;;5055462;28;20388;-67
2021/12/08 08:39:02;;;;;;;;;;;;;;;;;;5054285;28;20365;-67
2021/12/08 08:41:29;;;;;;;;;;;;;;;;;;5055249;28;20363;-65
2021/12/08 08:43:56;;;;;;;;;;;;;;;;;;5054347;28;20370;-65
2021/12/08 08:46:24;;;;;;;;;;;;;;;;;;5056926;28;19925;-65
2021/12/08 08:48:52;;;;;;;;;;;;;;;;;;5057860;28;20018;-65
2021/12/08 08:51:19;;;;;;;;;;;;;;;;;;5056250;28;19925;-65
2021/12/08 08:53:46;;;;;;;;;;;;;;;;;;5056274;28;19929;-67
2021/12/08 08:56:13;;;;;;;;;;;;;;;;;;5056413;28;20018;-66
2021/12/08 08:58:41;;;;;;;;;;;;;;;;;;5057778;28;20182;-66
2021/12/08 09:01:08;;;;;;;;;;;;;;;;;;5059851;28;19932;-66
2021/12/08 09:03:35;;;;;;;;;;;;;;;;;;5061808;28;19924;-67
2021/12/08 09:06:02;;;;;;;;;;;;;;;;;;5056586;28;19932;-66
2021/12/08 09:08:29;;;;;;;;;;;;;;;;;;5056286;28;20349;-66
2021/12/08 09:10:56;;;;;;;;;;;;;;;;;;5058005;28;19925;-66
2021/12/08 09:13:23;;;;;;;;;;;;;;;;;;5065191;28;19970;-67
2021/12/08 09:15:50;;;;;;;;;;;;;;;;;;5066463;28;20339;-67
2021/12/08 09:18:17;;;;;;;;;;;;;;;;;;5061611;28;19925;-67
2021/12/08 09:20:45;;;;;;;;;;;;;;;;;;5063170;28;20282;-67
2021/12/08 09:23:13;;;;;;;;;;;;;;;;;;5058335;28;19928;-66
2021/12/08 09:25:40;;;;;;;;;;;;;;;;;;5061220;28;20414;-67
2021/12/08 09:28:07;;;;;;;;;;;;;;;;;;5058028;28;19932;-66
2021/12/08 09:30:34;;;;;;;;;;;;;;;;;;5057864;28;19929;-66
2021/12/08 09:33:01;;;;;;;;;;;;;;;;;;5065835;28;20026;-66
2021/12/08 09:35:28;;;;;;;;;;;;;;;;;;5061055;28;19932;-66
2021/12/08 09:37:55;;;;;;;;;;;;;;;;;;5062331;28;19925;-66
2021/12/08 09:40:26;;;;;;;;;;;;;;;;;;5059850;28;19925;-66
2021/12/08 09:42:53;;;;;;;;;;;;;;;;;;5062892;28;19964;-67
2021/12/08 09:45:20;;;;;;;;;;;;;;;;;;5057868;28;19924;-67
2021/12/08 09:47:47;;;;;;;;;;;;;;;;;;5068152;28;19925;-66
2021/12/08 09:50:14;;;;;;;;;;;;;;;;;;5063726;28;19950;-67
2021/12/08 09:52:41;;;;;;;;;;;;;;;;;;5064423;28;19935;-66
2021/12/08 09:55:09;;;;;;;;;;;;;;;;;;5060087;28;20358;-67
2021/12/08 09:57:36;;;;;;;;;;;;;;;;;;5063106;28;20407;-66
2021/12/08 10:00:03;;;;;;;;;;;;;;;;;;5057429;28;19935;-66
2021/12/08 10:02:33;;;;;;;;;;;;;;;;;;5060331;28;19994;-67
2021/12/08 10:05:00;;;;;;;;;;;;;;;;;;5057792;28;19928;-69
2021/12/08 10:07:27;;;;;;;;;;;;;;;;;;5058068;28;19924;-68
2021/12/08 10:09:54;;;;;;;;;;;;;;;;;;5059812;28;20404;-66
2021/12/08 10:12:21;;;;;;;;;;;;;;;;;;5063940;28;19928;-68
2021/12/08 10:14:50;;;;;;;;;;;;;;;;;;5061739;28;19990;-68
2021/12/08 10:17:17;;;;;;;;;;;;;;;;;;5065803;28;20230;-67
2021/12/08 10:19:44;;;;;;;;;;;;;;;;;;5059425;28;19925;-67
2021/12/08 10:22:11;;;;;;;;;;;;;;;;;;5057854;28;20372;-66
2021/12/08 10:24:38;;;;;;;;;;;;;;;;;;5061708;28;19925;-67
2021/12/08 10:27:05;;;;;;;;;;;;;;;;;;5060985;28;19925;-68
2021/12/08 10:29:32;;;;;;;;;;;;;;;;;;5057809;28;19931;-67
2021/12/08 10:32:00;;;;;;;;;;;;;;;;;;5060829;28;19924;-66
2021/12/08 10:34:31;;;;;;;;;;;;;;;;;;5061210;28;19924;-66
2021/12/08 10:36:58;;;;;;;;;;;;;;;;;;5064036;28;19931;-66
2021/12/08 10:39:25;;;;;;;;;;;;;;;;;;5059416;28;19932;-67
2021/12/08 10:41:52;;;;;;;;;;;;;;;;;;5056490;28;19933;-68
2021/12/08 10:44:19;;;;;;;;;;;;;;;;;;5062997;28;19935;-67
2021/12/08 10:46:46;;;;;;;;;;;;;;;;;;5062152;28;19931;-66
2021/12/08 10:49:20;;;;;;;;;;;;;;;;;;5063250;28;19924;-67
2021/12/08 10:54:30;;;;;;;;;;;;;;;;;;5065743;28;19924;-68
2021/12/08 10:56:57;;;;;;;;;;;;;;;;;;5063571;28;19932;-68
2021/12/08 10:59:24;;;;;;;;;;;;;;;;;;5067185;28;20352;-68
2021/12/08 11:01:51;;;;;;;;;;;;;;;;;;5063063;28;19924;-68
2021/12/08 11:04:19;;;;;;;;;;;;;;;;;;5047044;28;19971;-68
2021/12/08 11:06:47;;;;;;;;;;;;;;;;;;5044359;28;19925;-67
2021/12/08 11:09:14;;;;;;;;;;;;;;;;;;5044778;28;19925;-69
2021/12/08 11:11:43;;;;;;;;;;;;;;;;;;5046283;28;19925;-69
2021/12/08 11:14:10;;;;;;;;;;;;;;;;;;5044595;28;20390;-68
2021/12/08 11:16:37;;;;;;;;;;;;;;;;;;5046157;28;19928;-68
2021/12/08 11:19:05;;;;;;;;;;;;;;;;;;5041961;28;20062;-67
2021/12/08 11:21:36;;;;;;;;;;;;;;;;;;5039592;28;19929;-67
2021/12/08 11:24:03;;;;;;;;;;;;;;;;;;5047266;28;19999;-67
2021/12/08 11:26:30;;;;;;;;;;;;;;;;;;5043725;28;20453;-68
2021/12/08 11:28:59;;;;;;;;;;;;;;;;;;5044393;28;19925;-68
2021/12/08 11:31:26;;;;;;;;;;;;;;;;;;5046446;28;19925;-69
2021/12/08 11:34:00;;;;;;;;;;;;;;;;;;5046515;28;19940;-67
2021/12/08 11:36:27;;;;;;;;;;;;;;;;;;5042215;28;19932;-69
2021/12/08 11:38:54;;;;;;;;;;;;;;;;;;5040869;28;20036;-67
2021/12/08 11:41:21;;;;;;;;;;;;;;;;;;5044926;28;19960;-65
2021/12/08 11:43:48;;;;;;;;;;;;;;;;;;5044722;28;19931;-68
2021/12/08 11:46:15;;;;;;;;;;;;;;;;;;5042856;28;19925;-67
2021/12/08 11:48:42;;;;;;;;;;;;;;;;;;5046057;28;20043;-67
2021/12/08 11:51:09;;;;;;;;;;;;;;;;;;5048035;28;19925;-66
2021/12/08 11:53:36;;;;;;;;;;;;;;;;;;5043010;28;19925;-67
2021/12/08 11:56:05;;;;;;;;;;;;;;;;;;5044098;28;19933;-67
2021/12/08 11:58:39;;;;;;;;;;;;;;;;;;5043089;28;19924;-67
2021/12/08 12:01:09;;;;;;;;;;;;;;;;;;5043073;28;19926;-66
2021/12/08 12:03:40;;;;;;;;;;;;;;;;;;5044724;28;19925;-66
2021/12/08 12:06:07;;;;;;;;;;;;;;;;;;5043801;28;19939;-67
2021/12/08 12:08:37;;;;;;;;;;;;;;;;;;5045347;28;19956;-66
2021/12/08 12:11:04;;;;;;;;;;;;;;;;;;5043730;28;19968;-67
2021/12/08 12:13:31;;;;;;;;;;;;;;;;;;5043270;28;19950;-67
2021/12/08 12:15:58;;;;;;;;;;;;;;;;;;5041938;28;20013;-67
2021/12/08 12:18:25;;;;;;;;;;;;;;;;;;5041050;28;19925;-68
2021/12/08 12:20:55;;;;;;;;;;;;;;;;;;5046330;28;19982;-67
2021/12/08 12:23:22;;;;;;;;;;;;;;;;;;5046419;28;19929;-67
2021/12/08 12:25:49;;;;;;;;;;;;;;;;;;5041878;28;19925;-68
2021/12/08 12:28:23;;;;;;;;;;;;;;;;;;5041721;28;19932;-67
2021/12/08 12:30:50;;;;;;;;;;;;;;;;;;5040092;28;20324;-67
2021/12/08 12:33:18;;;;;;;;;;;;;;;;;;5040461;28;19932;-67
2021/12/08 12:35:45;;;;;;;;;;;;;;;;;;5042698;28;20013;-67
2021/12/08 12:38:21;;;;;;;;;;;;;;;;;;5041987;28;19979;-66
2021/12/08 12:40:51;;;;;;;;;;;;;;;;;;5041581;28;19995;-67
2021/12/08 12:43:18;;;;;;;;;;;;;;;;;;5042695;28;19932;-67
2021/12/08 12:45:46;;;;;;;;;;;;;;;;;;5041071;28;20278;-66
2021/12/08 12:48:15;;;;;;;;;;;;;;;;;;5040408;28;19944;-67
2021/12/08 12:50:42;;;;;;;;;;;;;;;;;;5042364;28;20341;-67
2021/12/08 12:53:12;;;;;;;;;;;;;;;;;;5041893;28;19925;-67
2021/12/08 12:55:39;;;;;;;;;;;;;;;;;;5043666;28;19925;-66
2021/12/08 12:58:06;;;;;;;;;;;;;;;;;;5042394;28;19925;-66
2021/12/08 13:00:33;;;;;;;;;;;;;;;;;;5041050;28;19976;-67
2021/12/08 13:03:01;;;;;;;;;;;;;;;;;;5043891;28;19925;-67
2021/12/08 13:05:28;;;;;;;;;;;;;;;;;;5039259;28;19925;-67
2021/12/08 13:07:55;;;;;;;;;;;;;;;;;;5043630;28;20385;-67
2021/12/08 13:10:29;;;;;;;;;;;;;;;;;;5040034;28;19928;-67
2021/12/08 13:12:56;;;;;;;;;;;;;;;;;;5041924;28;19925;-67
2021/12/08 13:15:25;;;;;;;;;;;;;;;;;;5042336;28;19944;-67
2021/12/08 13:17:52;;;;;;;;;;;;;;;;;;5039852;28;20509;-67
2021/12/08 13:20:19;;;;;;;;;;;;;;;;;;5046785;28;20095;-66
2021/12/08 13:22:47;;;;;;;;;;;;;;;;;;5039806;28;19932;-66
2021/12/08 13:25:14;;;;;;;;;;;;;;;;;;5039694;28;20027;-66
2021/12/08 13:27:41;;;;;;;;;;;;;;;;;;5040075;28;19925;-65
2021/12/08 13:30:08;;;;;;;;;;;;;;;;;;5040860;28;19929;-67
2021/12/08 13:32:37;;;;;;;;;;;;;;;;;;5044003;28;19947;-67
2021/12/08 13:35:04;;;;;;;;;;;;;;;;;;5040487;28;20404;-65
2021/12/08 13:37:31;;;;;;;;;;;;;;;;;;5045678;28;19925;-65
2021/12/08 13:39:58;;;;;;;;;;;;;;;;;;5038341;28;20011;-67
2021/12/08 13:42:28;;;;;;;;;;;;;;;;;;5042544;28;19925;-66
2021/12/08 13:44:55;;;;;;;;;;;;;;;;;;5036041;28;20306;-67
2021/12/08 13:47:25;;;;;;;;;;;;;;;;;;5043006;28;19929;-66
2021/12/08 13:49:52;;;;;;;;;;;;;;;;;;5042516;28;20394;-67
2021/12/08 13:52:19;;;;;;;;;;;;;;;;;;5037624;28;19933;-68
2021/12/08 13:54:47;;;;;;;;;;;;;;;;;;5040740;28;19924;-67
2021/12/08 13:57:13;;;;;;;;;;;;;;;;;;5042006;28;19944;-67
2021/12/08 13:59:40;;;;;;;;;;;;;;;;;;5042588;28;20008;-68
2021/12/08 14:02:07;;;;;;;;;;;;;;;;;;5049325;28;20058;-68
2021/12/08 14:04:34;;;;;;;;;;;;;;;;;;5045555;28;19925;-67
2021/12/08 14:07:01;;;;;;;;;;;;;;;;;;5044189;28;20361;-67
2021/12/08 14:09:28;;;;;;;;;;;;;;;;;;5044965;28;19925;-67
2021/12/08 14:11:55;;;;;;;;;;;;;;;;;;5041802;28;20031;-66
2021/12/08 14:14:22;;;;;;;;;;;;;;;;;;5046628;28;19928;-67
2021/12/08 14:16:49;;;;;;;;;;;;;;;;;;5043155;28;19925;-67
2021/12/08 14:19:16;;;;;;;;;;;;;;;;;;5045638;28;20306;-66
2021/12/08 14:21:43;;;;;;;;;;;;;;;;;;5041642;28;19929;-67
2021/12/08 14:24:13;;;;;;;;;;;;;;;;;;5045175;28;19924;-67
2021/12/08 14:26:40;;;;;;;;;;;;;;;;;;5045131;28;19931;-67
2021/12/08 14:29:09;;;;;;;;;;;;;;;;;;5041887;28;19933;-67
2021/12/08 14:31:37;;;;;;;;;;;;;;;;;;5046167;28;19932;-66
2021/12/08 14:34:05;;;;;;;;;;;;;;;;;;5042079;28;19929;-67
2021/12/08 14:36:32;;;;;;;;;;;;;;;;;;5048376;28;20299;-67
2021/12/08 14:39:00;;;;;;;;;;;;;;;;;;5043868;28;19932;-67
2021/12/08 14:41:27;;;;;;;;;;;;;;;;;;5048891;28;19935;-66
2021/12/08 14:43:54;;;;;;;;;;;;;;;;;;5042581;28;19929;-66
2021/12/08 14:46:22;;;;;;;;;;;;;;;;;;5047133;28;19931;-66
2021/12/08 14:48:49;;;;;;;;;;;;;;;;;;5045337;28;19925;-67
2021/12/08 14:51:16;;;;;;;;;;;;;;;;;;5041147;28;20370;-67
2021/12/08 14:53:43;;;;;;;;;;;;;;;;;;5046592;28;19967;-66
2021/12/08 14:56:10;;;;;;;;;;;;;;;;;;5047701;28;20016;-66
2021/12/08 14:58:37;;;;;;;;;;;;;;;;;;5045438;28;20302;-67
2021/12/08 15:01:04;;;;;;;;;;;;;;;;;;5046855;28;19928;-67
2021/12/08 15:03:31;;;;;;;;;;;;;;;;;;5041172;28;19944;-67
2021/12/08 15:05:58;;;;;;;;;;;;;;;;;;5042127;28;19925;-67
2021/12/08 15:08:26;;;;;;;;;;;;;;;;;;5045634;28;19925;-67
2021/12/08 15:10:53;;;;;;;;;;;;;;;;;;5041218;28;19982;-66
2021/12/08 15:13:23;;;;;;;;;;;;;;;;;;5040837;28;19950;-67
2021/12/08 15:15:50;;;;;;;;;;;;;;;;;;5041021;28;19932;-67
2021/12/08 15:18:18;;;;;;;;;;;;;;;;;;5040528;28;19963;-66
2021/12/08 15:20:46;;;;;;;;;;;;;;;;;;5044193;28;20286;-67
2021/12/08 15:23:14;;;;;;;;;;;;;;;;;;5041676;28;20453;-67
2021/12/08 15:25:41;;;;;;;;;;;;;;;;;;5045267;28;19925;-67
2021/12/08 15:28:08;;;;;;;;;;;;;;;;;;5043532;28;19943;-67
2021/12/08 15:30:35;;;;;;;;;;;;;;;;;;5044740;28;19971;-67
2021/12/08 15:33:02;;;;;;;;;;;;;;;;;;5043944;28;20341;-67
2021/12/08 15:35:29;;;;;;;;;;;;;;;;;;5043224;28;20176;-66
2021/12/08 15:37:56;;;;;;;;;;;;;;;;;;5043145;28;19925;-65
2021/12/08 15:40:23;;;;;;;;;;;;;;;;;;5046038;28;19929;-67
2021/12/08 15:42:50;;;;;;;;;;;;;;;;;;5045603;28;19924;-66
2021/12/08 15:45:17;;;;;;;;;;;;;;;;;;5046804;28;20011;-66
2021/12/08 15:47:45;;;;;;;;;;;;;;;;;;5042580;28;20023;-66
2021/12/08 15:50:12;;;;;;;;;;;;;;;;;;5042406;28;19935;-66
2021/12/08 15:52:42;;;;;;;;;;;;;;;;;;5042006;28;20293;-67
2021/12/08 15:55:08;;;;;;;;;;;;;;;;;;5044370;28;19932;-66
2021/12/08 15:57:38;;;;;;;;;;;;;;;;;;5042325;28;19970;-66
2021/12/08 16:00:05;;;;;;;;;;;;;;;;;;5040936;28;19939;-66
2021/12/08 16:02:32;;;;;;;;;;;;;;;;;;5043296;28;19939;-66
2021/12/08 16:05:00;;;;;;;;;;;;;;;;;;5042152;28;20015;-66
2021/12/08 16:07:27;;;;;;;;;;;;;;;;;;5042427;28;20392;-66
2021/12/08 16:09:54;;;;;;;;;;;;;;;;;;5043199;28;19932;-66
2021/12/08 16:12:21;;;;;;;;;;;;;;;;;;5043544;28;19944;-66
2021/12/08 16:14:52;;;;;;;;;;;;;;;;;;5044512;28;19925;-65
2021/12/08 16:17:19;;;;;;;;;;;;;;;;;;5043982;28;19929;-66
2021/12/08 16:19:47;;;;;;;;;;;;;;;;;;5042832;28;19932;-66
2021/12/08 16:22:14;;;;;;;;;;;;;;;;;;5043067;28;20220;-66
2021/12/08 16:24:41;;;;;;;;;;;;;;;;;;5044860;28;20386;-66
2021/12/08 16:27:11;;;;;;;;;;;;;;;;;;5040511;28;19932;-66
2021/12/08 16:29:39;;;;;;;;;;;;;;;;;;5044098;28;19925;-67
2021/12/08 16:32:06;;;;;;;;;;;;;;;;;;5039665;28;20378;-66
2021/12/08 16:34:33;;;;;;;;;;;;;;;;;;5044901;28;19935;-67
2021/12/08 16:37:00;;;;;;;;;;;;;;;;;;5038118;28;19960;-66
2021/12/08 16:39:29;;;;;;;;;;;;;;;;;;5045864;28;19947;-66
2021/12/08 16:44:40;;;;;;;;;;;;;;;;;;5039326;28;19924;-65
2021/12/08 16:47:07;;;;;;;;;;;;;;;;;;5042815;28;20362;-66
2021/12/08 16:49:34;;;;;;;;;;;;;;;;;;5041253;28;20357;-65
2021/12/08 16:52:02;;;;;;;;;;;;;;;;;;5044814;28;19931;-64
2021/12/08 16:54:29;;;;;;;;;;;;;;;;;;5087948;22;20023;-64
2021/12/08 16:56:55;;;;;;;;;;;;;;;;;;5083162;28;19924;-64
2021/12/08 16:59:22;;;;;;;;;;;;;;;;;;5086434;28;20290;-64
2021/12/08 17:01:49;;;;;;;;;;;;;;;;;;5087220;28;19924;-64
2021/12/08 17:04:16;;;;;;;;;;;;;;;;;;5084321;28;20385;-64
2021/12/08 17:06:43;;;;;;;;;;;;;;;;;;5082701;28;19931;-64
2021/12/08 17:09:10;;;;;;;;;;;;;;;;;;5086179;28;19928;-63
2021/12/08 17:11:37;;;;;;;;;;;;;;;;;;5082799;28;19934;-63
2021/12/08 17:14:04;;;;;;;;;;;;;;;;;;5083261;28;19924;-63
2021/12/08 17:16:32;;;;;;;;;;;;;;;;;;5080418;28;19924;-64
2021/12/08 17:18:59;;;;;;;;;;;;;;;;;;5082778;28;19932;-63